Time,TemperatureF,DewpointF,PressureIn,WindDirection,WindDirectionDegrees,WindSpeedMPH,WindSpeedGustMPH,Humidity,HourlyPrecipIn,Conditions,Clouds,dailyrainin,SoftwareType,DateUTC
2013-04-20 00:00:00,42.3,35.6,29.84,SW,235,5.0,14.0,77,0.00,,OVC023,-99.99,VWS V12.06,2013-04-20 04:00:00,
2013-04-20 00:02:00,40.2,35.2,29.82,WSW,242,10.0,23.0,82,0.00,,OVC023,-99.99,VWS V12.06,2013-04-20 04:02:00,
2013-04-20 00:30:00,41.7,35.0,29.86,NW,309,12.0,18.0,77,0.00,,OVC023,-99.99,VWS V12.06,2013-04-20 04:30:00,
2013-04-20 00:32:00,39.0,32.1,29.84,WNW,295,9.0,24.0,76,0.00,,OVC023,-99.99,VWS V12.06,2013-04-20 04:32:00,
2013-04-20 01:00:00,40.8,32.8,29.89,NW,305,9.0,9.0,73,0.00,,OVC025,-99.99,VWS V12.06,2013-04-20 05:00:00,
2013-04-20 01:02:00,38.1,29.9,29.85,WSW,244,4.0,23.0,72,0.00,,OVC025,-99.99,VWS V12.06,2013-04-20 05:02:00,
2013-04-20 01:30:00,40.0,31.0,29.88,WNW,292,6.0,6.0,70,0.00,,OVC025,-99.99,VWS V12.06,2013-04-20 05:30:00,
2013-04-20 02:00:00,39.2,31.6,29.89,West,266,5.0,5.0,74,0.00,,BKN029,-99.99,VWS V12.06,2013-04-20 06:00:00,
2013-04-20 02:30:00,39.1,31.5,29.89,North,360,8.0,8.0,74,0.00,,BKN029,-99.99,VWS V12.06,2013-04-20 06:30:00,
2013-04-20 03:00:00,38.7,30.1,29.88,WNW,284,8.0,10.0,71,0.00,,OVC029,-99.99,VWS V12.06,2013-04-20 07:00:00,
2013-04-20 03:30:00,38.3,29.7,29.89,NW,309,4.0,7.0,71,0.00,,OVC029,-99.99,VWS V12.06,2013-04-20 07:30:00,
2013-04-20 04:00:00,37.5,29.6,29.91,NE,39,3.0,3.0,73,0.00,,SCT029,-99.99,VWS V12.06,2013-04-20 08:00:00,
2013-04-20 04:30:00,37.0,27.8,29.93,NNW,336,8.0,8.0,69,0.00,,SCT029,-99.99,VWS V12.06,2013-04-20 08:30:00,
2013-04-20 05:00:00,36.3,26.8,29.95,SW,216,7.0,7.0,68,0.00,,CLR,-99.99,VWS V12.06,2013-04-20 09:00:00,
2013-04-20 05:30:00,35.9,26.4,29.96,SW,227,8.0,8.0,68,0.00,,CLR,-99.99,VWS V12.06,2013-04-20 09:30:00,
2013-04-20 06:00:00,35.3,25.8,29.98,West,276,0.0,1.0,68,0.00,,CLR,-99.99,VWS V12.06,2013-04-20 10:00:00,
2013-04-20 06:30:00,34.6,25.8,29.99,NNW,346,2.0,4.0,70,0.00,,CLR,-99.99,VWS V12.06,2013-04-20 10:30:00,
2013-04-20 07:00:00,34.6,24.4,30.00,West,273,3.0,3.0,66,0.00,,CLR,-99.99,VWS V12.06,2013-04-20 11:00:00,
2013-04-20 07:30:00,35.3,25.1,30.02,NE,51,2.0,2.0,66,0.00,,CLR,-99.99,VWS V12.06,2013-04-20 11:30:00,
2013-04-20 08:00:00,36.5,25.1,30.04,WSW,253,5.0,5.0,63,0.00,,CLR,-99.99,VWS V12.06,2013-04-20 12:00:00,
2013-04-20 08:30:00,37.9,27.6,30.07,NW,320,6.0,9.0,66,0.00,,CLR,-99.99,VWS V12.06,2013-04-20 12:30:00,
2013-04-20 09:00:00,38.9,27.8,30.09,WNW,291,0.0,1.0,64,0.00,,CLR,-99.99,VWS V12.06,2013-04-20 13:00:00,
2013-04-20 09:30:00,39.9,26.8,30.10,SW,215,7.0,7.0,59,0.00,,CLR,-99.99,VWS V12.06,2013-04-20 13:30:00,
2013-04-20 10:00:00,41.9,27.8,30.11,NW,308,20.0,20.0,57,0.00,,CLR,-99.99,VWS V12.06,2013-04-20 14:00:00,
2013-04-20 10:30:00,42.5,27.9,30.13,ESE,118,1.0,2.0,56,0.00,,CLR,-99.99,VWS V12.06,2013-04-20 14:30:00,
2013-04-20 11:03:00,44.0,28.9,30.15,North,5,3.0,5.0,55,0.00,,CLR,-99.99,VWS V12.06,2013-04-20 15:03:00,
2013-04-20 11:30:00,45.2,29.6,30.16,West,267,7.0,11.0,54,0.00,,CLR,-99.99,VWS V12.06,2013-04-20 15:30:00,
2013-04-20 12:03:00,46.4,29.8,30.16,West,263,4.0,7.0,52,0.00,,CLR,-99.99,VWS V12.06,2013-04-20 16:03:00,
2013-04-20 12:30:00,48.3,32.0,30.16,WNW,297,6.0,6.0,53,0.00,,CLR,-99.99,VWS V12.06,2013-04-20 16:30:00,
2013-04-20 13:01:00,48.7,28.9,30.15,NW,325,5.0,6.0,46,0.00,,CLR,-99.99,VWS V12.06,2013-04-20 17:01:00,
2013-04-20 13:30:00,50.6,32.7,30.16,NNW,346,3.0,3.0,50,0.00,,CLR,-99.99,VWS V12.06,2013-04-20 17:30:00,
2013-04-20 14:00:00,50.6,31.1,30.16,NW,308,1.0,1.0,47,0.00,,CLR,-99.99,VWS V12.06,2013-04-20 18:00:00,
2013-04-20 14:30:00,51.6,29.9,30.16,ENE,67,2.0,2.0,43,0.00,,CLR,-99.99,VWS V12.06,2013-04-20 18:30:00,
2013-04-20 15:00:00,52.2,30.4,30.16,West,278,4.0,5.0,43,0.00,,CLR,-99.99,VWS V12.06,2013-04-20 19:00:00,
2013-04-20 15:30:00,53.5,31.6,30.16,West,262,5.0,6.0,43,0.00,,CLR,-99.99,VWS V12.06,2013-04-20 19:30:00,
2013-04-20 16:00:00,53.2,29.5,30.16,North,355,6.0,8.0,40,0.00,,CLR,-99.99,VWS V12.06,2013-04-20 20:00:00,
2013-04-20 16:30:00,55.1,31.2,30.17,NNW,346,0.0,1.0,40,0.00,,CLR,-99.99,VWS V12.06,2013-04-20 20:30:00,
2013-04-20 17:00:00,53.9,29.5,30.17,North,355,9.0,9.0,39,0.00,,CLR,-99.99,VWS V12.06,2013-04-20 21:00:00,
2013-04-20 17:30:00,53.9,30.1,30.19,NW,326,5.0,5.0,40,0.00,,CLR,-99.99,VWS V12.06,2013-04-20 21:30:00,
2013-04-20 18:00:00,53.3,31.4,30.20,NNW,340,2.0,2.0,43,0.00,,CLR,-99.99,VWS V12.06,2013-04-20 22:00:00,
2013-04-20 18:30:00,53.0,30.5,30.20,NW,314,1.0,1.0,42,0.00,,CLR,-99.99,VWS V12.06,2013-04-20 22:30:00,
2013-04-20 19:00:00,52.3,30.5,30.20,NW,323,6.0,10.0,43,0.00,,CLR,-99.99,VWS V12.06,2013-04-20 23:00:00,
2013-04-20 19:30:00,49.9,29.4,30.22,NW,319,2.0,8.0,45,0.00,,CLR,-99.99,VWS V12.06,2013-04-20 23:30:00,
2013-04-20 20:00:00,48.3,30.0,30.23,WNW,291,0.0,1.0,49,0.00,,CLR,-99.99,VWS V12.06,2013-04-21 00:00:00,
2013-04-20 20:30:00,47.2,30.0,30.25,NW,311,0.0,0.0,51,0.00,,CLR,-99.99,VWS V12.06,2013-04-21 00:30:00,
2013-04-20 21:00:00,46.5,28.9,30.27,NW,304,1.0,1.0,50,0.00,,CLR,-99.99,VWS V12.06,2013-04-21 01:00:00,
2013-04-20 21:30:00,45.9,28.3,30.29,NW,325,1.0,2.0,50,0.00,,CLR,-99.99,VWS V12.06,2013-04-21 01:30:00,
2013-04-20 22:00:00,45.3,26.3,30.31,North,5,2.0,4.0,47,0.00,,CLR,-99.99,VWS V12.06,2013-04-21 02:00:00,
2013-04-20 22:30:00,45.0,25.5,30.31,North,9,4.0,4.0,46,0.00,,CLR,-99.99,VWS V12.06,2013-04-21 02:30:00,
2013-04-20 23:00:00,44.7,25.2,30.31,North,360,3.0,3.0,46,0.00,,CLR,-99.99,VWS V12.06,2013-04-21 03:00:00,
2013-04-20 23:30:00,43.9,26.5,30.32,North,355,3.0,3.0,50,0.00,,CLR,-99.99,VWS V12.06,2013-04-21 03:30:00,